KSKA/SKA METAR and TAF weather

Enter ICAO airport designator
Station Type Date Time Source
KSKA METAR 2019/06/27 09:58 UTC NOAA

KSKA 270958Z AUTO 21006KT 10SM FEW021 SCT080 11/11 A2994 RMK AO2 RAE01RAB26E39DZB39E42 SLP133 P0000 T01130113 $


Station Type Date Time Source
KSKA Decoded METAR 2019/06/27 09:58 UTC NOAA

Fairchild Air Force Base, WA, United States (KSKA) 47-37N 117-39W
Jun 27, 2019 - 05:58 AM EDT / 2019.06.27 0958 UTC
Wind: from the SSW (210 degrees) at 7 MPH (6 KT):0
Visibility: 10 mile(s):0
Sky conditions: partly cloudy
Precipitation last hour: A trace
Temperature: 52.3 F (11.3 C)
Dew Point: 52.3 F (11.3 C)
Relative Humidity: 100%
Pressure (altimeter): 29.94 in. Hg (1013 hPa)
ob: KSKA 270958Z AUTO 21006KT 10SM FEW021 SCT080 11/11 A2994 RMK AO2 RAE01RAB26E39DZB39E42 SLP133 P0000 T01130113
cycle: 10

Station Type Date Time Source
KSKA TAF 2019/06/27 05:06 UTC NOAA

TAF
AMD KSKA 270505Z 2705/2809 24012G18KT 9999 VCSH SCT150 BKN200 QNH3000INS
BECMG 2706/2708 22012KT 8000 -SHRA BKN020 OVC040 610859 QNH2982INS
BECMG 2711/2712 23009KT 9999 VCSH SCT020 BKN045 600654 QNH2991INS
BECMG 2714/2715 20012KT 9000 NSW BKN050 610604 QNH2994INS WND 24009KT AFT 2723 TX21/2723Z TN11/2712Z

Example: see airport list